Time;durP1;ratioP1;P1;durP2;ratioP2;P2;SDS_P1;SDS_P2;PMS_P1;PMS_P2;Temp;Humidity;BMP_temperature;BMP_pressure;BME280_temperature;BME280_humidity;BME280_pressure;Samples;Min_cycle;Max_cycle;Signal;HPM_P1;HPM_P2
2022/02/11 00:00:53;;;;;;;298.87;64.63;;;;;;;;;;4808789;29;20053;-80
2022/02/11 00:06:19;;;;;;;323.70;68.53;;;;;;;;;;4822197;29;20089;-80
2022/02/11 00:08:42;;;;;;;322.60;66.63;;;;;;;;;;4820792;29;20050;-80
2022/02/11 00:11:08;;;;;;;304.40;61.37;;;;;;;;;;4826059;29;20090;-80
2022/02/11 00:13:34;;;;;;;311.67;64.00;;;;;;;;;;4790503;29;20088;-80
2022/02/11 00:16:00;;;;;;;336.03;79.27;;;;;;;;;;4808489;29;20061;-79
2022/02/11 00:18:26;;;;;;;331.93;65.17;;;;;;;;;;4823813;29;20051;-80
2022/02/11 00:20:53;;;;;;;189.30;56.97;;;;;;;;;;4836468;29;20061;-80
2022/02/11 00:23:20;;;;;;;333.50;66.70;;;;;;;;;;4837042;29;20519;-80
2022/02/11 00:25:52;;;;;;;320.77;66.23;;;;;;;;;;4823446;29;20055;-79
2022/02/11 00:28:55;;;;;;;240.13;65.93;;;;;;;;;;4794131;29;20057;-82
2022/02/11 00:34:04;;;;;;;;;;;;;;;;;;4842889;29;20050;-82
2022/02/11 00:36:39;;;;;;;315.97;63.07;;;;;;;;;;4828128;29;20007;-82
2022/02/11 01:03:56;;;;;;;351.80;66.87;;;;;;;;;;4809176;29;20050;-79
2022/02/11 01:06:20;;;;;;;347.20;66.37;;;;;;;;;;4821901;29;20130;-79
2022/02/11 01:08:46;;;;;;;350.47;66.37;;;;;;;;;;4821738;29;20042;-79
2022/02/11 01:11:19;;;;;;;359.70;68.33;;;;;;;;;;4823460;29;20033;-80
2022/02/11 01:13:46;;;;;;;353.40;67.32;;;;;;;;;;4822597;29;20422;-80
2022/02/11 01:16:18;;;;;;;345.20;66.23;;;;;;;;;;4821098;29;20037;-80
2022/02/11 01:18:50;;;;;;;351.57;68.20;;;;;;;;;;4808724;29;20393;-80
2022/02/11 01:21:24;;;;;;;351.25;68.60;;;;;;;;;;4797442;29;20136;-80
2022/02/11 01:24:09;;;;;;;362.55;69.97;;;;;;;;;;4820407;29;20042;-80
2022/02/11 01:30:11;;;;;;;346.40;66.03;;;;;;;;;;4792457;29;20070;-79
2022/02/11 01:34:52;;;;;;;360.97;68.70;;;;;;;;;;4822281;29;20050;-79
2022/02/11 01:43:32;;;;;;;341.50;65.87;;;;;;;;;;4839757;29;20050;-80
2022/02/11 01:50:48;;;;;;;363.27;69.05;;;;;;;;;;4825161;29;20085;-78
2022/02/11 01:53:32;;;;;;;357.55;69.47;;;;;;;;;;4823163;29;20080;-78
2022/02/11 02:01:36;;;;;;;360.23;71.47;;;;;;;;;;4837346;29;20061;-79
2022/02/11 02:09:46;;;;;;;355.90;69.75;;;;;;;;;;4820568;29;20102;-80
2022/02/11 02:15:24;;;;;;;358.75;68.55;;;;;;;;;;4822568;29;20427;-79
2022/02/11 02:26:08;;;;;;;393.08;73.75;;;;;;;;;;4820490;29;20052;-79
2022/02/11 02:37:08;;;;;;;381.65;71.20;;;;;;;;;;4825181;29;20076;-79
2022/02/11 02:50:23;;;;;;;378.03;75.00;;;;;;;;;;4809969;29;20061;-79
2022/02/11 02:58:30;;;;;;;380.52;72.20;;;;;;;;;;4808512;29;20611;-79
2022/02/11 03:53:43;;;;;;;380.25;71.80;;;;;;;;;;4805531;29;20053;-78
2022/02/11 04:55:43;;;;;;;380.05;70.15;;;;;;;;;;4825517;29;20053;-77
2022/02/11 05:00:54;;;;;;;237.00;66.93;;;;;;;;;;4819858;29;20107;-79
2022/02/11 05:03:20;;;;;;;378.75;74.20;;;;;;;;;;4816262;29;20045;-77
2022/02/11 05:05:49;;;;;;;378.05;70.47;;;;;;;;;;4825408;29;20134;-79
2022/02/11 05:08:16;;;;;;;378.73;72.82;;;;;;;;;;4825908;29;20064;-78
2022/02/11 05:10:43;;;;;;;372.05;69.65;;;;;;;;;;4822812;29;20566;-79
2022/02/11 05:13:09;;;;;;;139.80;51.80;;;;;;;;;;4808132;29;20549;-79
2022/02/11 05:15:35;;;;;;;370.77;69.05;;;;;;;;;;4809506;29;20402;-79
2022/02/11 05:18:02;;;;;;;383.60;70.22;;;;;;;;;;4822432;29;20137;-79
2022/02/11 05:20:28;;;;;;;383.63;71.38;;;;;;;;;;4808635;29;20101;-79
2022/02/11 05:22:54;;;;;;;372.00;69.95;;;;;;;;;;4812257;29;20497;-79
2022/02/11 05:25:21;;;;;;;381.73;74.18;;;;;;;;;;4838065;29;20443;-78
2022/02/11 05:27:47;;;;;;;382.13;74.53;;;;;;;;;;4805677;29;20062;-85
2022/02/11 05:30:13;;;;;;;375.67;71.57;;;;;;;;;;4820943;29;20061;-80
2022/02/11 05:32:39;;;;;;;381.83;70.72;;;;;;;;;;4841461;29;20065;-78
2022/02/11 05:35:06;;;;;;;374.83;69.45;;;;;;;;;;4837582;29;20120;-79
2022/02/11 05:37:32;;;;;;;379.95;69.65;;;;;;;;;;4811253;29;20113;-79
2022/02/11 05:39:58;;;;;;;376.25;71.53;;;;;;;;;;4807909;29;20069;-81
2022/02/11 05:42:24;;;;;;;390.35;76.05;;;;;;;;;;4822171;29;20050;-79
2022/02/11 05:44:50;;;;;;;376.52;82.03;;;;;;;;;;4806263;29;20058;-78
2022/02/11 05:47:16;;;;;;;351.13;76.68;;;;;;;;;;4807185;29;20094;-75
2022/02/11 05:49:42;;;;;;;375.25;70.85;;;;;;;;;;4837145;29;20397;-84
2022/02/11 05:52:08;;;;;;;345.83;70.70;;;;;;;;;;4822297;29;20053;-80
2022/02/11 05:54:34;;;;;;;359.55;69.80;;;;;;;;;;4807047;29;20080;-80
2022/02/11 05:57:00;;;;;;;333.92;72.90;;;;;;;;;;4792331;29;20490;-77
2022/02/11 05:59:27;;;;;;;375.17;76.07;;;;;;;;;;4807350;29;20503;-77
2022/02/11 06:01:53;;;;;;;372.85;68.95;;;;;;;;;;4821227;29;20074;-79
2022/02/11 06:04:20;;;;;;;378.08;74.93;;;;;;;;;;4806674;29;20352;-78
2022/02/11 06:06:47;;;;;;;381.52;71.47;;;;;;;;;;4825646;29;20050;-77
2022/02/11 06:09:13;;;;;;;380.23;71.53;;;;;;;;;;4825890;29;20061;-77
2022/02/11 06:11:39;;;;;;;374.70;69.32;;;;;;;;;;4814026;29;20058;-78
2022/02/11 06:14:06;;;;;;;340.15;68.28;;;;;;;;;;4808428;29;20046;-77
2022/02/11 06:16:33;;;;;;;353.40;72.10;;;;;;;;;;4822752;29;20525;-78
2022/02/11 06:18:59;;;;;;;359.42;67.22;;;;;;;;;;4801508;29;20548;-77
2022/02/11 06:21:25;;;;;;;373.48;71.90;;;;;;;;;;4822573;29;20495;-78
2022/02/11 06:23:55;;;;;;;367.65;68.53;;;;;;;;;;4820719;29;20046;-78
2022/02/11 06:26:22;;;;;;;353.00;73.63;;;;;;;;;;4829291;29;20042;-77
2022/02/11 06:28:49;;;;;;;352.58;68.75;;;;;;;;;;4788964;29;20115;-77
2022/02/11 06:31:15;;;;;;;343.60;75.90;;;;;;;;;;4789355;29;20077;-77
2022/02/11 06:33:41;;;;;;;329.85;78.13;;;;;;;;;;4790496;29;20137;-77
2022/02/11 06:36:07;;;;;;;269.58;66.78;;;;;;;;;;4793486;29;20378;-77
2022/02/11 06:38:33;;;;;;;148.90;57.22;;;;;;;;;;4806774;29;20452;-77
2022/02/11 06:40:59;;;;;;;264.88;65.75;;;;;;;;;;4801353;29;20047;-78
2022/02/11 06:43:25;;;;;;;274.92;70.75;;;;;;;;;;4818742;29;20054;-78
2022/02/11 06:45:52;;;;;;;355.48;67.10;;;;;;;;;;4809783;29;20050;-78
2022/02/11 06:48:21;;;;;;;368.48;67.55;;;;;;;;;;4793143;29;20051;-77
2022/02/11 06:50:47;;;;;;;368.63;67.30;;;;;;;;;;4809999;29;20616;-77
2022/02/11 06:53:14;;;;;;;367.73;71.75;;;;;;;;;;4828747;29;20081;-77
2022/02/11 06:55:41;;;;;;;363.63;67.63;;;;;;;;;;4790098;29;20133;-77
2022/02/11 06:58:07;;;;;;;369.13;70.05;;;;;;;;;;4803512;29;20086;-78
2022/02/11 07:00:33;;;;;;;367.48;71.47;;;;;;;;;;4809892;29;20110;-77
2022/02/11 07:03:00;;;;;;;323.13;69.47;;;;;;;;;;4805010;29;20151;-78
2022/02/11 07:05:27;;;;;;;355.20;71.57;;;;;;;;;;4793010;29;20043;-77
2022/02/11 07:07:54;;;;;;;374.50;70.85;;;;;;;;;;4801501;29;20465;-77
2022/02/11 07:10:20;;;;;;;357.10;69.70;;;;;;;;;;4804036;29;20154;-79
2022/02/11 07:12:47;;;;;;;315.02;70.00;;;;;;;;;;4796207;29;20054;-78
2022/02/11 07:15:13;;;;;;;356.13;68.55;;;;;;;;;;4829429;29;20046;-78
2022/02/11 07:17:39;;;;;;;366.52;70.65;;;;;;;;;;4772709;29;20145;-78
2022/02/11 07:20:06;;;;;;;329.23;71.65;;;;;;;;;;4804528;29;20053;-77
2022/02/11 07:22:35;;;;;;;303.15;72.72;;;;;;;;;;4834838;29;20047;-78
2022/02/11 07:25:02;;;;;;;364.85;67.57;;;;;;;;;;4798046;29;20110;-78
2022/02/11 07:27:28;;;;;;;365.75;72.00;;;;;;;;;;4801350;29;20062;-77
2022/02/11 07:29:54;;;;;;;313.15;69.22;;;;;;;;;;4852490;29;20144;-77
2022/02/11 07:32:20;;;;;;;238.55;63.80;;;;;;;;;;4842989;29;20081;-78
2022/02/11 07:34:47;;;;;;;334.35;65.68;;;;;;;;;;4829723;29;20477;-77
2022/02/11 07:37:13;;;;;;;299.50;69.80;;;;;;;;;;4842624;29;20046;-76
2022/02/11 07:39:39;;;;;;;228.48;65.78;;;;;;;;;;4834069;29;20394;-77
2022/02/11 07:42:05;;;;;;;177.10;56.88;;;;;;;;;;4843855;29;20057;-78
2022/02/11 07:44:31;;;;;;;355.13;71.50;;;;;;;;;;4843194;29;20553;-78
2022/02/11 07:46:57;;;;;;;331.15;68.20;;;;;;;;;;4841342;29;20506;-78
2022/02/11 07:49:23;;;;;;;242.35;63.17;;;;;;;;;;4827347;29;20074;-78
2022/02/11 07:51:49;;;;;;;175.52;57.40;;;;;;;;;;4827346;29;20512;-77
2022/02/11 07:54:15;;;;;;;129.02;51.60;;;;;;;;;;4827690;29;20478;-77
2022/02/11 07:56:41;;;;;;;141.77;56.13;;;;;;;;;;4840350;29;20057;-77
2022/02/11 07:59:07;;;;;;;187.05;59.25;;;;;;;;;;4840189;29;20045;-77
2022/02/11 08:01:34;;;;;;;132.48;56.40;;;;;;;;;;4839155;29;20057;-78
2022/02/11 08:04:00;;;;;;;353.33;66.72;;;;;;;;;;4828716;29;20049;-78
2022/02/11 08:06:27;;;;;;;242.85;66.18;;;;;;;;;;4857898;29;20489;-77
2022/02/11 08:08:53;;;;;;;209.18;61.03;;;;;;;;;;4829744;29;20182;-78
2022/02/11 08:11:19;;;;;;;127.65;51.17;;;;;;;;;;4827823;29;20465;-78
2022/02/11 08:13:45;;;;;;;229.65;61.42;;;;;;;;;;4831444;29;20053;-78
2022/02/11 08:16:11;;;;;;;204.85;59.88;;;;;;;;;;4839708;29;20053;-78
2022/02/11 08:18:37;;;;;;;227.27;66.43;;;;;;;;;;4824036;29;20081;-78
2022/02/11 08:21:03;;;;;;;235.57;61.55;;;;;;;;;;4840250;29;20045;-80
2022/02/11 08:23:29;;;;;;;324.77;66.90;;;;;;;;;;4857478;29;20052;-78
2022/02/11 08:25:55;;;;;;;173.93;56.70;;;;;;;;;;4828276;29;20087;-79
2022/02/11 08:28:21;;;;;;;193.45;58.40;;;;;;;;;;4826983;29;20421;-79
2022/02/11 08:30:49;;;;;;;242.70;65.63;;;;;;;;;;4833512;29;20057;-79
2022/02/11 08:33:21;;;;;;;174.93;56.97;;;;;;;;;;4845179;29;20060;-78
2022/02/11 08:35:57;;;;;;;145.27;53.22;;;;;;;;;;4843326;29;20072;-78
2022/02/11 08:38:24;;;;;;;151.95;54.25;;;;;;;;;;4821214;29;20046;-79
2022/02/11 08:40:51;;;;;;;70.75;38.80;;;;;;;;;;4831578;29;20109;-78
2022/02/11 08:43:17;;;;;;;114.30;48.50;;;;;;;;;;4826774;29;20478;-79
2022/02/11 08:45:43;;;;;;;86.47;46.22;;;;;;;;;;4822627;29;20440;-79
2022/02/11 08:48:11;;;;;;;23.55;9.13;;;;;;;;;;4822543;29;20096;-78
2022/02/11 08:50:37;;;;;;;82.78;44.25;;;;;;;;;;4843137;29;20492;-78
2022/02/11 08:53:04;;;;;;;39.83;21.35;;;;;;;;;;4840941;29;20555;-77
2022/02/11 08:55:30;;;;;;;37.95;19.83;;;;;;;;;;4825179;29;20124;-82
2022/02/11 08:57:59;;;;;;;136.52;53.92;;;;;;;;;;4852024;29;20065;-75
2022/02/11 09:00:29;;;;;;;46.63;28.30;;;;;;;;;;4830022;29;20136;-76
2022/02/11 09:02:55;;;;;;;127.60;52.75;;;;;;;;;;4820650;29;20146;-74
2022/02/11 09:05:22;;;;;;;55.25;28.58;;;;;;;;;;4825763;29;20152;-75
2022/02/11 09:07:55;;;;;;;43.58;27.15;;;;;;;;;;4840388;29;20264;-74
2022/02/11 09:10:22;;;;;;;94.22;45.65;;;;;;;;;;4851413;29;20046;-73
2022/02/11 09:12:49;;;;;;;27.15;10.32;;;;;;;;;;4832780;29;20050;-75
2022/02/11 09:15:15;;;;;;;15.13;3.17;;;;;;;;;;4839278;29;20110;-77
2022/02/11 09:17:41;;;;;;;16.52;4.50;;;;;;;;;;4832175;29;20050;-77
2022/02/11 09:20:08;;;;;;;17.02;2.90;;;;;;;;;;4826711;29;20121;-77
2022/02/11 09:22:34;;;;;;;18.92;3.85;;;;;;;;;;4830766;29;20056;-77
2022/02/11 09:25:00;;;;;;;14.85;3.38;;;;;;;;;;4852597;29;20049;-76
2022/02/11 09:27:26;;;;;;;14.88;2.25;;;;;;;;;;4813733;29;20093;-76
2022/02/11 09:29:52;;;;;;;14.90;4.15;;;;;;;;;;4824731;29;20062;-77
2022/02/11 09:32:18;;;;;;;17.48;2.83;;;;;;;;;;4834642;29;20057;-77
2022/02/11 09:34:44;;;;;;;28.90;5.28;;;;;;;;;;4854289;29;20574;-76
2022/02/11 09:37:11;;;;;;;85.50;42.58;;;;;;;;;;4825891;29;20046;-75
2022/02/11 09:39:37;;;;;;;23.55;4.13;;;;;;;;;;4825625;29;20093;-77
2022/02/11 09:42:03;;;;;;;19.67;2.60;;;;;;;;;;4857487;29;20081;-77
2022/02/11 09:44:32;;;;;;;18.52;4.55;;;;;;;;;;4851215;29;20442;-76
2022/02/11 09:46:59;;;;;;;16.23;3.10;;;;;;;;;;4839877;29;20056;-77
2022/02/11 09:49:25;;;;;;;27.10;3.75;;;;;;;;;;4824708;29;20145;-76
2022/02/11 09:51:53;;;;;;;20.85;4.97;;;;;;;;;;4861760;29;20057;-77
2022/02/11 09:54:22;;;;;;;21.92;3.47;;;;;;;;;;4851459;29;20053;-75
2022/02/11 09:56:50;;;;;;;26.05;4.38;;;;;;;;;;4861335;29;20060;-76
2022/02/11 09:59:16;;;;;;;16.52;3.88;;;;;;;;;;4856390;29;20062;-77
2022/02/11 10:01:43;;;;;;;14.20;3.08;;;;;;;;;;4854327;29;20050;-80
2022/02/11 10:04:14;;;;;;;20.33;2.92;;;;;;;;;;4855188;29;20046;-80
2022/02/11 10:06:40;;;;;;;19.40;2.00;;;;;;;;;;4854732;29;20092;-80
2022/02/11 10:09:06;;;;;;;12.30;2.85;;;;;;;;;;4855749;29;20046;-77
2022/02/11 10:11:33;;;;;;;12.15;1.75;;;;;;;;;;4824915;29;20487;-78
2022/02/11 10:14:17;;;;;;;17.17;2.53;;;;;;;;;;4831285;29;20519;-77
2022/02/11 10:16:43;;;;;;;;;;;;;;;;;;4856221;29;20058;-77
2022/02/11 10:19:09;;;;;;;21.27;2.97;;;;;;;;;;4837079;29;19973;-77
2022/02/11 10:21:35;;;;;;;18.23;2.63;;;;;;;;;;4824976;29;20136;-77
2022/02/11 10:24:01;;;;;;;17.13;2.78;;;;;;;;;;4820296;29;20453;-77
2022/02/11 10:26:27;;;;;;;23.17;2.55;;;;;;;;;;4814830;29;20069;-76
2022/02/11 10:28:55;;;;;;;14.20;2.30;;;;;;;;;;4842855;29;20050;-77
2022/02/11 10:31:25;;;;;;;19.70;2.33;;;;;;;;;;4830112;29;20092;-77
2022/02/11 10:33:54;;;;;;;18.45;2.63;;;;;;;;;;4840251;29;20061;-78
2022/02/11 10:36:22;;;;;;;16.88;3.25;;;;;;;;;;4826236;29;20054;-78
2022/02/11 10:39:00;;;;;;;19.10;2.00;;;;;;;;;;4823807;29;20073;-78
2022/02/11 10:41:26;;;;;;;17.42;2.20;;;;;;;;;;4859096;29;20048;-78
2022/02/11 10:43:57;;;;;;;20.40;2.67;;;;;;;;;;4839857;29;20053;-78
2022/02/11 10:46:24;;;;;;;13.25;2.17;;;;;;;;;;4858642;29;20077;-78
2022/02/11 10:48:50;;;;;;;14.98;2.88;;;;;;;;;;4816305;29;20053;-78
2022/02/11 10:51:23;;;;;;;15.63;2.15;;;;;;;;;;4841502;29;20053;-77
2022/02/11 10:53:49;;;;;;;10.37;2.67;;;;;;;;;;4841355;29;20497;-81
2022/02/11 10:56:15;;;;;;;22.70;2.97;;;;;;;;;;4837635;29;20064;-80
2022/02/11 10:58:47;;;;;;;17.85;2.50;;;;;;;;;;4835871;29;20152;-82
2022/02/11 11:01:13;;;;;;;12.80;1.73;;;;;;;;;;4827081;29;20050;-82
2022/02/11 11:03:39;;;;;;;16.77;2.83;;;;;;;;;;4831537;29;20500;-82
2022/02/11 11:06:06;;;;;;;8.95;2.50;;;;;;;;;;4839326;29;20117;-82
2022/02/11 11:08:37;;;;;;;12.52;1.70;;;;;;;;;;4832141;29;20149;-82
2022/02/11 11:11:05;;;;;;;13.63;2.10;;;;;;;;;;4865452;29;20056;-82
2022/02/11 11:13:32;;;;;;;23.45;2.80;;;;;;;;;;4858448;29;20359;-82
2022/02/11 11:16:00;;;;;;;16.83;2.88;;;;;;;;;;4860927;29;20488;-82
2022/02/11 11:18:27;;;;;;;7.25;1.50;;;;;;;;;;4858969;29;20060;-82
2022/02/11 11:20:54;;;;;;;11.13;2.00;;;;;;;;;;4882271;29;20052;-86
2022/02/11 11:23:22;;;;;;;9.50;1.60;;;;;;;;;;4856974;29;20045;-84
2022/02/11 11:25:53;;;;;;;18.17;2.47;;;;;;;;;;4846171;29;20057;-83
2022/02/11 11:28:38;;;;;;;11.07;1.75;;;;;;;;;;4858535;29;20066;-82
2022/02/11 11:31:14;;;;;;;20.13;2.47;;;;;;;;;;4831645;29;20053;-81
2022/02/11 11:33:40;;;;;;;10.98;2.03;;;;;;;;;;4830255;29;20054;-80
2022/02/11 11:36:08;;;;;;;16.20;1.70;;;;;;;;;;4839146;29;20053;-81
2022/02/11 11:38:38;;;;;;;15.90;2.00;;;;;;;;;;4856548;29;20073;-82
2022/02/11 11:41:12;;;;;;;16.00;2.92;;;;;;;;;;4852693;29;20037;-82
2022/02/11 11:43:44;;;;;;;15.50;2.17;;;;;;;;;;4873405;29;20061;-81
2022/02/11 11:46:16;;;;;;;11.82;1.95;;;;;;;;;;4828577;29;20478;-82
2022/02/11 11:49:12;;;;;;;17.85;3.38;;;;;;;;;;4843025;29;20042;-81
2022/02/11 11:51:38;;;;;;;17.35;1.88;;;;;;;;;;4828948;29;20493;-81
2022/02/11 11:54:16;;;;;;;8.93;1.52;;;;;;;;;;4833360;29;20489;-80
2022/02/11 11:56:55;;;;;;;11.68;2.05;;;;;;;;;;4836656;29;20048;-81
2022/02/11 11:59:21;;;;;;;13.00;1.85;;;;;;;;;;4827326;29;20143;-82
2022/02/11 12:01:54;;;;;;;13.50;2.45;;;;;;;;;;4848836;29;20050;-82
2022/02/11 12:04:24;;;;;;;17.83;1.80;;;;;;;;;;4834323;29;20074;-82
2022/02/11 12:06:58;;;;;;;8.00;2.17;;;;;;;;;;4826721;29;20057;-82
2022/02/11 12:09:25;;;;;;;12.43;1.48;;;;;;;;;;4826872;29;20525;-81
2022/02/11 12:11:59;;;;;;;9.93;2.40;;;;;;;;;;4826273;29;20064;-82
2022/02/11 12:14:27;;;;;;;9.32;1.58;;;;;;;;;;4840577;29;20046;-82
2022/02/11 12:16:53;;;;;;;12.23;1.35;;;;;;;;;;4827100;29;20106;-82
2022/02/11 12:19:20;;;;;;;10.18;2.08;;;;;;;;;;4842386;29;20049;-82
2022/02/11 12:21:46;;;;;;;13.15;1.55;;;;;;;;;;4826539;29;20050;-82
2022/02/11 12:29:48;;;;;;;8.30;1.45;;;;;;;;;;4831430;29;20127;-81
2022/02/11 12:32:14;;;;;;;8.38;1.13;;;;;;;;;;4846092;29;20377;-81
2022/02/11 12:34:46;;;;;;;9.15;1.00;;;;;;;;;;4865637;29;20060;-81
2022/02/11 12:37:12;;;;;;;10.32;1.20;;;;;;;;;;4841402;29;20077;-81
2022/02/11 12:39:38;;;;;;;8.52;1.02;;;;;;;;;;4825979;29;20393;-81
2022/02/11 12:42:05;;;;;;;4.55;1.27;;;;;;;;;;4825216;29;20143;-82
2022/02/11 12:44:34;;;;;;;4.50;1.08;;;;;;;;;;4858657;29;20037;-83
2022/02/11 12:47:02;;;;;;;7.90;1.10;;;;;;;;;;4842598;29;20105;-82
2022/02/11 12:49:30;;;;;;;6.47;1.15;;;;;;;;;;4836756;29;20120;-82
2022/02/11 12:51:57;;;;;;;10.57;1.63;;;;;;;;;;4840704;29;20057;-82
2022/02/11 12:54:24;;;;;;;14.25;1.63;;;;;;;;;;4858480;29;20086;-81
2022/02/11 12:57:01;;;;;;;10.70;1.52;;;;;;;;;;4845793;29;20054;-82
2022/02/11 12:59:27;;;;;;;11.10;1.77;;;;;;;;;;4832096;29;20100;-82
2022/02/11 13:01:53;;;;;;;8.23;1.38;;;;;;;;;;4828285;29;20497;-82
2022/02/11 13:04:21;;;;;;;7.90;1.63;;;;;;;;;;4825734;29;20053;-81
2022/02/11 13:06:47;;;;;;;9.02;1.25;;;;;;;;;;4855981;29;20046;-82
2022/02/11 13:09:13;;;;;;;9.63;1.45;;;;;;;;;;4826094;29;20074;-82
2022/02/11 13:11:43;;;;;;;12.18;1.98;;;;;;;;;;4818985;29;20053;-83
2022/02/11 13:14:10;;;;;;;8.35;1.80;;;;;;;;;;4826347;29;20519;-83
2022/02/11 13:16:38;;;;;;;9.70;1.00;;;;;;;;;;4855949;29;20084;-82
2022/02/11 13:19:15;;;;;;;6.82;1.08;;;;;;;;;;4855309;29;20050;-82
2022/02/11 13:21:41;;;;;;;11.63;1.38;;;;;;;;;;4855695;29;20446;-83
2022/02/11 13:24:08;;;;;;;12.80;1.63;;;;;;;;;;4855434;29;20382;-82
2022/02/11 13:26:34;;;;;;;8.37;1.27;;;;;;;;;;4808464;29;1083525;-82
2022/02/11 13:29:00;;;;;;;12.20;1.45;;;;;;;;;;4826027;29;20061;-82
2022/02/11 13:31:27;;;;;;;7.43;1.30;;;;;;;;;;4826081;29;20042;-81
2022/02/11 13:34:08;;;;;;;6.35;1.05;;;;;;;;;;4825210;29;20374;-82
2022/02/11 13:36:34;;;;;;;16.85;2.13;;;;;;;;;;4870715;29;20201;-81
2022/02/11 13:39:02;;;;;;;8.48;1.45;;;;;;;;;;4863114;29;20041;-82
2022/02/11 13:41:29;;;;;;;12.77;1.42;;;;;;;;;;4825265;29;20132;-83
2022/02/11 13:43:55;;;;;;;11.18;2.00;;;;;;;;;;4868117;29;20381;-83
2022/02/11 13:46:25;;;;;;;12.20;2.78;;;;;;;;;;4832709;29;20052;-83
2022/02/11 13:48:53;;;;;;;9.32;1.35;;;;;;;;;;4822114;29;20056;-83
2022/02/11 13:51:19;;;;;;;14.13;1.10;;;;;;;;;;4840207;29;20375;-82
2022/02/11 13:53:52;;;;;;;6.15;1.38;;;;;;;;;;4839238;29;20432;-82
2022/02/11 13:56:19;;;;;;;12.73;1.60;;;;;;;;;;4839847;29;20127;-82
2022/02/11 13:59:01;;;;;;;12.15;1.42;;;;;;;;;;4849367;29;20056;-83
2022/02/11 14:01:28;;;;;;;10.38;1.55;;;;;;;;;;4831832;29;20134;-83
2022/02/11 14:04:03;;;;;;;6.40;1.17;;;;;;;;;;4855961;29;20090;-83
2022/02/11 14:06:36;;;;;;;13.52;1.92;;;;;;;;;;4846492;29;20046;-82
2022/02/11 14:09:04;;;;;;;14.27;1.85;;;;;;;;;;4825094;29;20397;-82
2022/02/11 14:11:34;;;;;;;12.63;1.50;;;;;;;;;;4862340;29;20106;-83
2022/02/11 14:14:08;;;;;;;10.77;1.85;;;;;;;;;;4855367;29;20030;-83
2022/02/11 14:16:35;;;;;;;8.10;1.70;;;;;;;;;;4855787;29;20477;-83
2022/02/11 14:19:01;;;;;;;12.70;1.15;;;;;;;;;;4839467;29;20086;-83
2022/02/11 14:21:28;;;;;;;11.05;1.48;;;;;;;;;;4864104;29;20389;-83
2022/02/11 14:23:54;;;;;;;8.35;1.73;;;;;;;;;;4835827;29;20098;-83
2022/02/11 14:26:20;;;;;;;14.77;2.30;;;;;;;;;;4824222;29;20049;-82
2022/02/11 14:28:46;;;;;;;17.23;3.00;;;;;;;;;;4825337;29;20580;-82
2022/02/11 14:31:12;;;;;;;13.90;2.05;;;;;;;;;;4827814;29;20049;-82
2022/02/11 14:33:38;;;;;;;12.57;1.42;;;;;;;;;;4829308;29;20046;-82
2022/02/11 14:36:04;;;;;;;6.88;1.13;;;;;;;;;;4839813;29;20045;-82
2022/02/11 14:38:30;;;;;;;11.98;1.50;;;;;;;;;;4813573;29;20046;-82
2022/02/11 14:43:41;;;;;;;9.80;1.50;;;;;;;;;;4842439;29;20102;-82
2022/02/11 14:46:07;;;;;;;12.05;1.80;;;;;;;;;;4827202;29;20045;-83
2022/02/11 14:48:33;;;;;;;9.55;1.08;;;;;;;;;;4842541;29;20050;-82
2022/02/11 14:51:00;;;;;;;10.93;1.30;;;;;;;;;;4854801;29;20054;-83
2022/02/11 14:53:27;;;;;;;7.20;1.02;;;;;;;;;;4857794;29;20061;-83
2022/02/11 14:55:53;;;;;;;7.82;1.50;;;;;;;;;;4825019;29;20044;-83
2022/02/11 14:58:19;;;;;;;12.18;1.95;;;;;;;;;;4824655;29;20046;-83
2022/02/11 15:00:45;;;;;;;12.00;1.20;;;;;;;;;;4849062;29;20088;-83
2022/02/11 15:03:11;;;;;;;10.13;1.48;;;;;;;;;;4832590;29;20045;-83
2022/02/11 15:05:37;;;;;;;6.80;1.00;;;;;;;;;;4839092;29;20442;-83
2022/02/11 15:08:04;;;;;;;5.18;0.90;;;;;;;;;;4839480;29;20046;-83
2022/02/11 15:10:30;;;;;;;10.48;1.42;;;;;;;;;;4855364;29;20439;-84
2022/02/11 15:12:56;;;;;;;8.10;1.42;;;;;;;;;;4826548;29;20130;-83
2022/02/11 15:15:22;;;;;;;11.18;1.80;;;;;;;;;;4845956;29;20045;-81
2022/02/11 15:17:48;;;;;;;12.23;1.95;;;;;;;;;;4839576;29;20053;-82
2022/02/11 15:20:14;;;;;;;13.88;2.35;;;;;;;;;;4824409;29;20069;-82
2022/02/11 15:22:40;;;;;;;11.77;2.15;;;;;;;;;;4857392;29;20477;-82
2022/02/11 15:25:07;;;;;;;12.70;1.73;;;;;;;;;;4869975;29;20064;-80
2022/02/11 15:27:33;;;;;;;9.82;1.98;;;;;;;;;;4837721;29;20548;-84
2022/02/11 15:30:00;;;;;;;12.13;2.03;;;;;;;;;;4825844;29;20497;-83
2022/02/11 15:32:27;;;;;;;14.82;1.70;;;;;;;;;;4827092;29;20050;-84
2022/02/11 15:34:53;;;;;;;10.82;1.38;;;;;;;;;;4820833;29;20061;-85
2022/02/11 15:37:19;;;;;;;8.82;1.88;;;;;;;;;;4836782;29;20126;-83
2022/02/11 15:39:45;;;;;;;12.57;1.45;;;;;;;;;;4836911;29;20037;-84
2022/02/11 15:42:11;;;;;;;11.85;1.55;;;;;;;;;;4822838;29;20048;-83
2022/02/11 15:44:37;;;;;;;10.05;1.58;;;;;;;;;;4856621;29;20475;-83
2022/02/11 15:47:03;;;;;;;9.52;1.05;;;;;;;;;;4834346;29;20050;-82
2022/02/11 15:49:30;;;;;;;13.38;1.88;;;;;;;;;;4846393;29;20122;-83
2022/02/11 15:51:56;;;;;;;10.48;1.50;;;;;;;;;;4838460;29;20453;-82
2022/02/11 15:54:22;;;;;;;10.07;1.67;;;;;;;;;;4856767;29;20071;-82
2022/02/11 15:56:48;;;;;;;11.65;2.22;;;;;;;;;;4857580;29;20050;-82
2022/02/11 15:59:14;;;;;;;12.13;1.13;;;;;;;;;;4857562;29;20133;-83
2022/02/11 16:01:40;;;;;;;8.13;1.17;;;;;;;;;;4857951;29;20050;-82
2022/02/11 16:04:07;;;;;;;15.57;1.75;;;;;;;;;;4863719;29;20052;-82
2022/02/11 16:06:34;;;;;;;8.98;1.40;;;;;;;;;;4843131;29;20058;-81
2022/02/11 16:09:00;;;;;;;12.60;1.95;;;;;;;;;;4842446;29;20061;-82
2022/02/11 16:11:26;;;;;;;9.63;1.40;;;;;;;;;;4826918;29;20046;-83
2022/02/11 16:13:52;;;;;;;10.18;1.42;;;;;;;;;;4830875;29;20053;-83
2022/02/11 16:16:18;;;;;;;13.25;1.20;;;;;;;;;;4827249;29;20124;-83
2022/02/11 16:18:44;;;;;;;10.68;1.50;;;;;;;;;;4827842;29;20085;-83
2022/02/11 16:21:10;;;;;;;9.77;1.50;;;;;;;;;;4837679;29;20127;-84
2022/02/11 16:23:40;;;;;;;15.95;1.60;;;;;;;;;;4829368;29;20165;-79
2022/02/11 16:26:06;;;;;;;14.07;2.10;;;;;;;;;;4825907;29;20188;-87
2022/02/11 16:28:33;;;;;;;9.50;2.55;;;;;;;;;;4827667;29;20171;-80
2022/02/11 16:31:16;;;;;;;6.78;2.13;;;;;;;;;;4836095;29;20481;-85
2022/02/11 16:33:42;;;;;;;9.50;2.50;;;;;;;;;;4837085;29;20087;-81
2022/02/11 16:36:08;;;;;;;15.63;2.25;;;;;;;;;;4828356;29;20057;-77
2022/02/11 16:38:34;;;;;;;17.75;1.60;;;;;;;;;;4828205;29;20055;-80
2022/02/11 16:41:00;;;;;;;16.35;1.80;;;;;;;;;;4852370;29;20477;-80
2022/02/11 16:43:26;;;;;;;7.40;2.10;;;;;;;;;;4818752;29;20053;-82
2022/02/11 16:45:52;;;;;;;16.70;3.05;;;;;;;;;;4847085;29;20141;-80
2022/02/11 16:48:18;;;;;;;12.48;1.95;;;;;;;;;;4833753;29;20050;-80
2022/02/11 16:50:45;;;;;;;12.38;1.58;;;;;;;;;;4827324;29;20065;-83
2022/02/11 16:53:11;;;;;;;6.40;1.30;;;;;;;;;;4828650;29;20045;-80
2022/02/11 16:55:37;;;;;;;7.95;1.70;;;;;;;;;;4843213;29;20402;-83
2022/02/11 16:58:04;;;;;;;7.25;1.80;;;;;;;;;;4851912;29;20046;-81
2022/02/11 17:00:30;;;;;;;12.80;2.00;;;;;;;;;;4839446;29;20058;-77
2022/02/11 17:02:56;;;;;;;8.18;2.08;;;;;;;;;;4820005;29;20042;-83
2022/02/11 17:05:22;;;;;;;10.15;1.95;;;;;;;;;;4852415;29;20045;-82
2022/02/11 17:07:49;;;;;;;13.35;4.07;;;;;;;;;;4859194;29;20079;-84
2022/02/11 17:10:15;;;;;;;7.25;2.13;;;;;;;;;;4843636;29;20465;-85
2022/02/11 17:12:41;;;;;;;9.98;2.65;;;;;;;;;;4832770;29;20081;-84
2022/02/11 17:15:08;;;;;;;16.90;2.55;;;;;;;;;;4861583;29;20049;-81
2022/02/11 17:17:34;;;;;;;11.48;2.92;;;;;;;;;;4841803;29;20049;-86
2022/02/11 17:20:00;;;;;;;10.93;3.10;;;;;;;;;;4844076;29;20098;-84
2022/02/11 17:22:26;;;;;;;7.53;2.53;;;;;;;;;;4838876;29;20057;-84
2022/02/11 17:24:52;;;;;;;12.15;3.30;;;;;;;;;;4868845;29;20516;-81
2022/02/11 17:27:18;;;;;;;10.48;2.15;;;;;;;;;;4840252;29;20065;-83
2022/02/11 17:29:45;;;;;;;9.25;2.33;;;;;;;;;;4827414;29;20053;-88
2022/02/11 17:32:12;;;;;;;18.38;3.40;;;;;;;;;;4810948;29;20037;-87
2022/02/11 17:34:41;;;;;;;18.98;4.95;;;;;;;;;;4867189;29;20132;-89
2022/02/11 17:37:08;;;;;;;13.15;4.55;;;;;;;;;;4874335;29;20145;-88
2022/02/11 17:39:34;;;;;;;14.20;3.78;;;;;;;;;;4827234;29;20269;-89
2022/02/11 17:42:01;;;;;;;13.63;4.10;;;;;;;;;;4845116;29;20046;-91
2022/02/11 17:44:28;;;;;;;25.02;6.00;;;;;;;;;;4872728;29;20042;-88
2022/02/11 17:46:54;;;;;;;39.35;12.32;;;;;;;;;;4843728;29;20053;-96
2022/02/11 17:49:21;;;;;;;46.72;14.63;;;;;;;;;;4842769;29;20125;-90
2022/02/11 17:51:47;;;;;;;32.75;13.55;;;;;;;;;;4828950;29;20144;-90
2022/02/11 17:54:14;;;;;;;31.95;11.80;;;;;;;;;;4844941;29;20049;-90
2022/02/11 17:56:50;;;;;;;23.75;8.63;;;;;;;;;;4875235;29;20053;-90
2022/02/11 17:59:16;;;;;;;25.60;8.20;;;;;;;;;;4858698;29;20045;-92
2022/02/11 18:01:43;;;;;;;18.38;7.03;;;;;;;;;;4831321;29;20049;-87
2022/02/11 18:04:10;;;;;;;20.35;7.78;;;;;;;;;;4831345;29;20064;-93